Surface observations / Europe / LIPR

Quebec | Canada | USA | France | UK | Europe | Elsewhere

Display: Info & Location for LIPR | Help decoding METAR

LIPR RIMINI (CIV/IT-AFB) -- IY
Raw surface observations for station LIPR
LIPR 232145Z 24001KT 6000 NSC 12/11 Q1014=
LIPR 232115Z 22002KT 4500 BR NSC 12/11 Q1014=
LIPR 232045Z 00000KT 4600 BR NSC 12/11 Q1014=
LIPR 232015Z 27001KT 4000 BR NSC 13/12 Q1014=
LIPR 231945Z 00000KT 4000 BR NSC 14/13 Q1014=
LIPR 231915Z 27002KT 4300 BR NSC 14/12 Q1014=
LIPR 231845Z 00000KT 4000 BR NSC 15/13 Q1014=
LIPR 231815Z 27001KT 4000 BR NSC 16/13 Q1014=
LIPR 231745Z 00000KT 5000 BR NSC 16/13 Q1014=
LIPR 231715Z 00000KT 7000 NSC 17/13 Q1014=
LIPR 231645Z 02002KT 8000 NSC 17/13 Q1014=
LIPR 231615Z 04001KT 8000 FEW030 17/13 Q1014=
LIPR 231545Z 02003KT 8000 FEW030 17/13 Q1014=
LIPR 231515Z 36006KT 8000 FEW030 17/13 Q1014=
LIPR 231445Z 36005KT 8000 FEW030 17/13 Q1014=
LIPR 231415Z 36006KT 8000 FEW030 17/12 Q1014=
LIPR 231345Z 33006KT 7000 FEW030 18/12 Q1014=
LIPR 231315Z 35006KT 6000 FEW030 17/12 Q1015=
LIPR 231245Z 36006KT 5000 BR FEW030 17/13 Q1016=
LIPR 231215Z 01006KT 5000 BR FEW030 SCT060 16/13 Q1016=
LIPR 231145Z 01006KT 5000 BR FEW030 SCT060 16/13 Q1016=
LIPR 231115Z 35007KT 5000 FEW030 SCT060 16/12 Q1016=
LIPR 231045Z 33004KT 5000 BR FEW030 SCT060 16/12 Q1016=
LIPR 231015Z 29004KT 5000 BR FEW040 SCT060 15/13 Q1016=
LIPR 230945Z 29005KT 5000 BR FEW040 SCT060 15/13 Q1016=
LIPR 230915Z 29004KT 5000 BR FEW040 SCT060 15/13 Q1016=
LIPR 230845Z 29004KT 5000 BR FEW040 SCT060 14/12 Q1016=
LIPR 230815Z 29005KT 4500 BR FEW040 SCT060 14/12 Q1016=
LIPR 230745Z 31006KT 4200 BR FEW040 SCT060 14/12 Q1016=
LIPR 230715Z 29005KT 3800 BR FEW040 SCT060 14/12 Q1016=
LIPR 230645Z 31005KT 2000 BR FEW040 SCT060 14/12 Q1016=
LIPR 230615Z 29002KT 2000 BR FEW040 SCT060 13/12 Q1016=
LIPR 230545Z 00000KT 2000 BR FEW040 BKN060 13/12 Q1016=
LIPR 230515Z 00000KT 2000 BR SCT040 SCT060 12/11 Q1016=
LIPR 230445Z 00000KT 2000 BR SCT030 12/11 Q1016=
LIPR 230415Z 27001KT 2000 BR SCT030 12/11 Q1016=
LIPR 230345Z 29002KT 1500 BR SCT010 12/11 Q1016=
LIPR 230315Z 29003KT 1500 BR SCT010 12/11 Q1016=
LIPR 230245Z 28003KT 1500 BR SCT010 12/11 Q1016=
LIPR 230215Z 00000KT 1500 BR SCT010 11/11 Q1016=
LIPR 230145Z 30002KT 1500 BR SCT010 11/11 Q1016=
LIPR 230115Z 30003KT 1000 R31//// BR SCT010 11/11 Q1016=
LIPR 230045Z 00000KT 0300 R31//// FG NSC 11/11 Q1016=
LIPR 230015Z 00000KT 0300 R31//// FG NSC 11/11 Q1016=
LIPR 222345Z 00000KT 0300 R31//// FG NSC 11/11 Q1016=
LIPR 222315Z 00000KT 0200 R31//// FG NSC 11/11 Q1015=
LIPR 222245Z 00000KT 0200 R31//// FG NSC 12/12 Q1015=
LIPR 222215Z 00000KT 0200 R31//// FG NSC 12/12 Q1015=
LIPR 222145Z 00000KT 0500 R31//// FG NSC 12/12 Q1015 RMK SKC VIS MIN 0500 WIND THR31 00000KT RED=